Time,TemperatureF,DewpointF,PressureIn,WindDirection,WindDirectionDegrees,WindSpeedMPH,WindSpeedGustMPH,Humidity,HourlyPrecipIn,Conditions,Clouds,dailyrainin,SoftwareType,DateUTC
2013-08-22 00:04:00,65.5,62.8,29.86,SSE,157,0.0,-999.0,91,-99.99,,,0.00,Acu-Link.com,2013-08-22 04:04:00,
2013-08-22 00:20:00,65.1,62.1,29.86,SSE,157,0.0,-999.0,90,-99.99,,,0.00,Acu-Link.com,2013-08-22 04:20:00,
2013-08-22 00:35:00,64.9,62.2,29.86,SSE,157,0.0,-999.0,91,-99.99,,,0.00,Acu-Link.com,2013-08-22 04:35:00,
2013-08-22 00:50:00,64.8,62.4,29.86,SSE,157,0.0,-999.0,92,-99.99,,,0.00,Acu-Link.com,2013-08-22 04:50:00,
2013-08-22 01:05:00,64.6,61.9,29.86,SSE,157,0.0,-999.0,91,-99.99,,,0.00,Acu-Link.com,2013-08-22 05:05:00,
2013-08-22 01:20:00,64.4,61.7,29.86,South,180,0.0,-999.0,91,-99.99,,,0.00,Acu-Link.com,2013-08-22 05:20:00,
2013-08-22 01:36:00,64.2,61.5,29.86,SSE,157,0.0,-999.0,91,-99.99,,,0.00,Acu-Link.com,2013-08-22 05:36:00,
2013-08-22 01:51:00,64.0,61.4,29.86,SSW,202,0.0,-999.0,91,-99.99,,,0.00,Acu-Link.com,2013-08-22 05:51:00,
2013-08-22 02:06:00,64.0,61.4,29.86,SSW,202,0.0,-999.0,91,-99.99,,,0.00,Acu-Link.com,2013-08-22 06:06:00,
2013-08-22 02:21:00,64.2,61.5,29.85,South,180,0.0,-999.0,91,-99.99,,,0.00,Acu-Link.com,2013-08-22 06:21:00,
2013-08-22 02:36:00,64.4,62.0,29.85,East,90,1.1,-999.0,92,-99.99,,,0.00,Acu-Link.com,2013-08-22 06:36:00,
2013-08-22 02:52:00,64.8,62.4,29.84,NW,315,0.0,-999.0,92,-99.99,,,0.00,Acu-Link.com,2013-08-22 06:52:00,
2013-08-22 03:07:00,64.8,62.4,29.84,South,180,0.0,-999.0,92,-99.99,,,0.00,Acu-Link.com,2013-08-22 07:07:00,
2013-08-22 03:22:00,64.6,62.2,29.84,SSW,202,0.0,-999.0,92,-99.99,,,0.00,Acu-Link.com,2013-08-22 07:22:00,
2013-08-22 03:37:00,64.4,62.0,29.83,South,180,0.0,-999.0,92,-99.99,,,0.00,Acu-Link.com,2013-08-22 07:37:00,
2013-08-22 03:53:00,64.2,61.8,29.82,SW,225,0.0,-999.0,92,-99.99,,,0.00,Acu-Link.com,2013-08-22 07:53:00,
2013-08-22 04:08:00,64.0,61.7,29.82,SW,225,0.0,-999.0,92,-99.99,,,0.00,Acu-Link.com,2013-08-22 08:08:00,
2013-08-22 04:23:00,63.9,61.5,29.82,West,270,0.0,-999.0,92,-99.99,,,0.00,Acu-Link.com,2013-08-22 08:23:00,
2013-08-22 04:38:00,63.7,61.3,29.81,SW,225,0.0,-999.0,92,-99.99,,,0.00,Acu-Link.com,2013-08-22 08:38:00,
2013-08-22 04:53:00,63.3,61.0,29.81,ENE,67,0.0,-999.0,92,-99.99,,,0.00,Acu-Link.com,2013-08-22 08:53:00,
2013-08-22 05:08:00,63.1,61.1,29.81,SW,225,0.0,-999.0,93,-99.99,,,0.00,Acu-Link.com,2013-08-22 09:08:00,
2013-08-22 05:24:00,63.3,61.6,29.80,ENE,67,0.0,-999.0,94,-99.99,,,0.00,Acu-Link.com,2013-08-22 09:24:00,
2013-08-22 05:39:00,63.9,61.8,29.80,WNW,292,0.0,-999.0,93,-99.99,,,0.00,Acu-Link.com,2013-08-22 09:39:00,
2013-08-22 05:54:00,64.2,61.8,29.80,SSE,157,0.0,-999.0,92,-99.99,,,0.00,Acu-Link.com,2013-08-22 09:54:00,
2013-08-22 06:09:00,63.9,61.5,29.80,West,270,0.0,-999.0,92,-99.99,,,0.00,Acu-Link.com,2013-08-22 10:09:00,
2013-08-22 06:24:00,64.2,61.8,29.80,ESE,112,0.0,-999.0,92,-99.99,,,0.00,Acu-Link.com,2013-08-22 10:24:00,
2013-08-22 06:40:00,64.6,61.9,29.80,WNW,292,0.0,-999.0,91,-99.99,,,0.00,Acu-Link.com,2013-08-22 10:40:00,
2013-08-22 08:41:00,72.9,65.2,29.80,SW,225,1.1,-999.0,77,-99.99,,,0.00,Acu-Link.com,2013-08-22 12:41:00,
2013-08-22 08:56:00,74.3,65.8,29.80,West,270,2.2,-999.0,75,-99.99,,,0.00,Acu-Link.com,2013-08-22 12:56:00,
2013-08-22 09:12:00,75.4,66.5,29.80,WNW,292,3.8,-999.0,74,-99.99,,,0.00,Acu-Link.com,2013-08-22 13:12:00,
2013-08-22 09:27:00,75.9,66.6,29.80,West,270,2.2,-999.0,73,-99.99,,,0.00,Acu-Link.com,2013-08-22 13:27:00,
2013-08-22 09:42:00,77.0,66.9,29.80,WNW,292,1.6,-999.0,71,-99.99,,,0.00,Acu-Link.com,2013-08-22 13:42:00,
2013-08-22 09:57:00,78.3,68.1,29.80,West,270,3.8,-999.0,71,-99.99,,,0.00,Acu-Link.com,2013-08-22 13:57:00,
2013-08-22 10:13:00,79.0,68.3,29.80,West,270,3.1,-999.0,70,-99.99,,,0.00,Acu-Link.com,2013-08-22 14:13:00,
2013-08-22 10:28:00,79.3,67.8,29.79,WSW,247,2.7,-999.0,68,-99.99,,,0.00,Acu-Link.com,2013-08-22 14:28:00,
2013-08-22 10:43:00,79.7,68.2,29.78,West,270,4.3,-999.0,68,-99.99,,,0.00,Acu-Link.com,2013-08-22 14:43:00,
2013-08-22 10:58:00,82.2,69.7,29.78,West,270,3.1,-999.0,66,-99.99,,,0.00,Acu-Link.com,2013-08-22 14:58:00,
2013-08-22 11:13:00,81.1,68.2,29.78,West,270,3.8,-999.0,65,-99.99,,,0.00,Acu-Link.com,2013-08-22 15:13:00,
2013-08-22 11:29:00,82.2,68.8,29.77,WNW,292,4.7,-999.0,64,-99.99,,,0.00,Acu-Link.com,2013-08-22 15:29:00,
2013-08-22 11:44:00,82.8,69.8,29.78,WNW,292,2.7,-999.0,65,-99.99,,,0.00,Acu-Link.com,2013-08-22 15:44:00,
2013-08-22 11:59:00,84.4,70.4,29.78,ESE,112,2.2,-999.0,63,-99.99,,,0.00,Acu-Link.com,2013-08-22 15:59:00,
2013-08-22 12:14:00,83.3,68.9,29.77,West,270,6.7,-999.0,62,-99.99,,,0.00,Acu-Link.com,2013-08-22 16:14:00,
2013-08-22 12:29:00,83.5,68.6,29.77,West,270,2.7,-999.0,61,-99.99,,,0.00,Acu-Link.com,2013-08-22 16:29:00,
2013-08-22 12:45:00,82.4,68.0,29.77,West,270,6.7,-999.0,62,-99.99,,,0.00,Acu-Link.com,2013-08-22 16:45:00,
2013-08-22 13:00:00,82.6,68.7,29.76,WSW,247,4.7,-999.0,63,-99.99,,,0.00,Acu-Link.com,2013-08-22 17:00:00,
2013-08-22 13:15:00,84.2,70.2,29.75,West,270,3.1,-999.0,63,-99.99,,,0.00,Acu-Link.com,2013-08-22 17:15:00,
2013-08-22 13:30:00,84.6,68.1,29.74,NW,315,3.8,-999.0,58,-99.99,,,0.00,Acu-Link.com,2013-08-22 17:30:00,
2013-08-22 13:46:00,84.2,69.3,29.74,West,270,2.7,-999.0,61,-99.99,,,0.00,Acu-Link.com,2013-08-22 17:46:00,
2013-08-22 14:01:00,83.3,67.4,29.74,WSW,247,1.6,-999.0,59,-99.99,,,0.00,Acu-Link.com,2013-08-22 18:01:00,
2013-08-22 14:16:00,82.2,69.7,29.74,West,270,4.3,-999.0,66,-99.99,,,0.00,Acu-Link.com,2013-08-22 18:16:00,
2013-08-22 14:31:00,78.6,69.2,29.73,West,270,4.7,-999.0,73,-99.99,,,0.00,Acu-Link.com,2013-08-22 18:31:00,
2013-08-22 14:46:00,77.2,68.2,29.74,West,270,5.1,-999.0,74,-99.99,,,0.00,Acu-Link.com,2013-08-22 18:46:00,
2013-08-22 15:02:00,76.6,67.7,29.73,West,270,3.8,-999.0,74,-99.99,,,0.00,Acu-Link.com,2013-08-22 19:02:00,
2013-08-22 15:17:00,75.0,69.1,29.74,West,270,4.3,-999.0,82,-99.99,,,0.00,Acu-Link.com,2013-08-22 19:17:00,
2013-08-22 15:32:00,74.8,69.3,29.74,West,270,4.3,-999.0,83,-99.99,,,0.00,Acu-Link.com,2013-08-22 19:32:00,
2013-08-22 15:47:00,75.9,69.7,29.73,West,270,5.1,-999.0,81,-99.99,,,0.00,Acu-Link.com,2013-08-22 19:47:00,
2013-08-22 16:02:00,76.5,70.2,29.74,West,270,4.3,-999.0,81,-99.99,,,0.00,Acu-Link.com,2013-08-22 20:02:00,
2013-08-22 16:18:00,77.7,70.7,29.74,West,270,3.8,-999.0,79,-99.99,,,0.00,Acu-Link.com,2013-08-22 20:18:00,
2013-08-22 16:33:00,77.7,70.3,29.75,WSW,247,3.1,-999.0,78,-99.99,,,0.00,Acu-Link.com,2013-08-22 20:33:00,
2013-08-22 16:48:00,77.9,70.5,29.75,West,270,4.7,-999.0,78,-99.99,,,0.00,Acu-Link.com,2013-08-22 20:48:00,
2013-08-22 17:03:00,79.0,70.8,29.75,NE,45,2.7,-999.0,76,-99.99,,,0.00,Acu-Link.com,2013-08-22 21:03:00,
2013-08-22 17:19:00,79.9,70.0,29.74,West,270,4.3,-999.0,72,-99.99,,,0.00,Acu-Link.com,2013-08-22 21:19:00,
2013-08-22 17:34:00,79.7,69.4,29.74,West,270,3.8,-999.0,71,-99.99,,,0.00,Acu-Link.com,2013-08-22 21:34:00,
2013-08-22 17:49:00,78.8,69.0,29.74,WNW,292,2.7,-999.0,72,-99.99,,,0.00,Acu-Link.com,2013-08-22 21:49:00,
2013-08-22 18:04:00,78.1,68.3,29.74,West,270,4.7,-999.0,72,-99.99,,,0.00,Acu-Link.com,2013-08-22 22:04:00,
2013-08-22 18:19:00,77.4,68.0,29.74,WSW,247,0.0,-999.0,73,-99.99,,,0.00,Acu-Link.com,2013-08-22 22:19:00,
2013-08-22 18:35:00,76.6,67.7,29.74,West,270,3.8,-999.0,74,-99.99,,,0.00,Acu-Link.com,2013-08-22 22:35:00,
2013-08-22 18:50:00,76.3,67.4,29.75,West,270,2.7,-999.0,74,-99.99,,,0.00,Acu-Link.com,2013-08-22 22:50:00,
2013-08-22 19:05:00,76.1,67.6,29.75,West,270,2.7,-999.0,75,-99.99,,,0.00,Acu-Link.com,2013-08-22 23:05:00,
2013-08-22 19:20:00,75.9,67.4,29.76,WSW,247,3.8,-999.0,75,-99.99,,,0.00,Acu-Link.com,2013-08-22 23:20:00,
2013-08-22 19:35:00,75.6,67.1,29.76,West,270,4.3,-999.0,75,-99.99,,,0.00,Acu-Link.com,2013-08-22 23:35:00,
2013-08-22 19:51:00,74.8,66.4,29.76,West,270,6.3,-999.0,75,-99.99,,,0.00,Acu-Link.com,2013-08-22 23:51:00,
2013-08-22 20:06:00,74.5,66.0,29.77,West,270,2.7,-999.0,75,-99.99,,,0.00,Acu-Link.com,2013-08-23 00:06:00,
2013-08-22 20:21:00,74.1,65.7,29.77,West,270,2.7,-999.0,75,-99.99,,,0.00,Acu-Link.com,2013-08-23 00:21:00,
2013-08-22 20:36:00,73.6,65.2,29.77,West,270,2.2,-999.0,75,-99.99,,,0.00,Acu-Link.com,2013-08-23 00:36:00,
2013-08-22 20:52:00,72.3,64.7,29.78,West,270,0.0,-999.0,77,-99.99,,,0.00,Acu-Link.com,2013-08-23 00:52:00,
2013-08-22 21:07:00,71.1,63.8,29.78,West,270,2.7,-999.0,78,-99.99,,,0.00,Acu-Link.com,2013-08-23 01:07:00,
2013-08-22 21:22:00,71.6,61.7,29.78,West,270,2.7,-999.0,71,-99.99,,,0.00,Acu-Link.com,2013-08-23 01:22:00,
2013-08-22 21:37:00,72.0,60.4,29.79,West,270,1.1,-999.0,67,-99.99,,,0.00,Acu-Link.com,2013-08-23 01:37:00,
2013-08-22 21:52:00,72.1,60.6,29.80,WNW,292,1.6,-999.0,67,-99.99,,,0.00,Acu-Link.com,2013-08-23 01:52:00,
2013-08-22 22:08:00,72.3,60.3,29.79,West,270,1.6,-999.0,66,-99.99,,,0.00,Acu-Link.com,2013-08-23 02:08:00,
2013-08-22 22:23:00,72.0,60.0,29.80,West,270,2.7,-999.0,66,-99.99,,,0.00,Acu-Link.com,2013-08-23 02:23:00,
2013-08-22 22:38:00,72.0,59.5,29.80,West,270,2.7,-999.0,65,-99.99,,,0.00,Acu-Link.com,2013-08-23 02:38:00,
2013-08-22 22:53:00,71.6,60.0,29.80,West,270,3.1,-999.0,67,-99.99,,,0.00,Acu-Link.com,2013-08-23 02:53:00,
2013-08-22 23:08:00,71.4,61.1,29.80,East,90,0.0,-999.0,70,-99.99,,,0.00,Acu-Link.com,2013-08-23 03:08:00,
2013-08-22 23:24:00,70.9,61.8,29.80,East,90,0.0,-999.0,73,-99.99,,,0.00,Acu-Link.com,2013-08-23 03:24:00,
2013-08-22 23:39:00,69.6,61.7,29.81,ESE,112,0.0,-999.0,76,-99.99,,,0.00,Acu-Link.com,2013-08-23 03:39:00,
2013-08-22 23:54:00,68.7,61.2,29.81,East,90,0.0,-999.0,77,-99.99,,,0.00,Acu-Link.com,2013-08-23 03:54:00,